createdAt,value
2023-05-05T00:01:02.434Z,6.78
2023-05-05T00:03:29.873Z,7.15
2023-05-05T00:05:57.470Z,6.15
2023-05-05T00:08:24.691Z,6.93
2023-05-05T00:10:53.699Z,6.40
2023-05-05T00:13:21.803Z,6.93
2023-05-05T00:15:51.041Z,6.85
2023-05-05T00:18:18.534Z,6.60
2023-05-05T00:20:47.200Z,6.90
2023-05-05T00:23:15.856Z,6.50
2023-05-05T00:25:42.976Z,6.72
2023-05-05T00:28:10.373Z,7.13
2023-05-05T00:30:39.698Z,7.20
2023-05-05T00:33:06.847Z,7.43
2023-05-05T00:35:34.400Z,7.00
2023-05-05T00:38:01.380Z,7.93
2023-05-05T00:40:28.638Z,7.50
2023-05-05T00:42:55.620Z,7.50
2023-05-05T00:45:22.676Z,6.80
2023-05-05T00:47:52.846Z,6.32
2023-05-05T00:50:31.102Z,6.43
2023-05-05T00:53:04.057Z,6.20
2023-05-05T00:55:32.211Z,7.13
2023-05-05T00:58:00.646Z,8.00
2023-05-05T01:00:28.642Z,8.05
2023-05-05T01:02:56.135Z,7.53
2023-05-05T01:05:27.050Z,7.20
2023-05-05T01:08:18.165Z,7.77
2023-05-05T01:11:03.284Z,7.60
2023-05-05T01:13:42.914Z,7.35
2023-05-05T01:16:32.402Z,7.30
2023-05-05T01:19:48.660Z,6.87
2023-05-05T01:22:20.796Z,6.03
2023-05-05T01:25:14.784Z,6.70
2023-05-05T01:28:06.479Z,6.90
2023-05-05T01:31:00.564Z,6.73
2023-05-05T01:33:36.960Z,6.40
2023-05-05T01:36:12.294Z,5.97
2023-05-05T01:38:42.655Z,6.00
2023-05-05T01:41:17.764Z,6.00
2023-05-05T01:43:49.862Z,6.03
2023-05-05T01:46:18.313Z,6.07
2023-05-05T01:48:47.024Z,6.30
2023-05-05T01:51:16.203Z,5.80
2023-05-05T01:53:43.871Z,5.40
2023-05-05T01:56:13.116Z,4.97
2023-05-05T01:58:44.346Z,4.57
2023-05-05T02:01:12.988Z,5.30
2023-05-05T02:03:42.055Z,4.93
2023-05-05T02:06:10.445Z,5.33
2023-05-05T02:08:39.470Z,6.40
2023-05-05T02:11:09.957Z,6.23
2023-05-05T02:13:37.835Z,5.87
2023-05-05T02:16:05.957Z,6.37
2023-05-05T02:18:35.908Z,6.67
2023-05-05T02:21:03.870Z,7.93
2023-05-05T02:23:31.800Z,7.80
2023-05-05T02:26:07.405Z,7.87
2023-05-05T02:29:07.517Z,7.73
2023-05-05T02:31:49.451Z,8.20
2023-05-05T02:34:27.763Z,8.03
2023-05-05T02:36:58.603Z,8.80
2023-05-05T02:39:32.311Z,8.43
2023-05-05T02:42:05.228Z,9.10
2023-05-05T02:44:33.694Z,8.97
2023-05-05T02:47:04.963Z,9.40
2023-05-05T02:49:31.973Z,10.67
2023-05-05T02:51:59.097Z,10.82
2023-05-05T02:54:27.298Z,10.05
2023-05-05T02:56:56.501Z,10.25
2023-05-05T02:59:41.850Z,10.30
2023-05-05T03:02:28.048Z,9.70
2023-05-05T03:05:08.973Z,10.77
2023-05-05T03:08:03.583Z,10.50
2023-05-05T03:10:38.751Z,10.02
2023-05-05T03:13:10.290Z,9.50
2023-05-05T03:15:51.800Z,10.23
2023-05-05T03:18:22.824Z,10.73
2023-05-05T03:20:50.431Z,9.77
2023-05-05T03:23:20.951Z,9.32
2023-05-05T03:25:49.964Z,9.73
2023-05-05T03:28:18.586Z,10.68
2023-05-05T03:30:45.876Z,9.90
2023-05-05T03:33:12.989Z,8.95
2023-05-05T03:35:39.899Z,9.40
2023-05-05T03:38:06.856Z,9.57
2023-05-05T03:40:43.596Z,8.93
2023-05-05T03:43:11.494Z,9.68
2023-05-05T03:45:38.723Z,8.93
2023-05-05T03:48:06.561Z,9.13
2023-05-05T03:50:33.543Z,9.90
2023-05-05T03:53:00.526Z,10.00
2023-05-05T03:55:27.474Z,10.70
2023-05-05T03:57:54.472Z,10.57
2023-05-05T04:00:22.050Z,10.55
2023-05-05T04:02:49.100Z,11.27
2023-05-05T04:05:16.139Z,11.23
2023-05-05T04:07:43.312Z,11.10
2023-05-05T04:10:10.615Z,11.57
2023-05-05T04:12:37.707Z,10.57
2023-05-05T04:15:05.602Z,11.07
2023-05-05T04:17:32.621Z,9.77
2023-05-05T04:19:59.674Z,10.90
2023-05-05T04:22:26.826Z,11.47
2023-05-05T04:24:54.058Z,11.67
2023-05-05T04:27:21.021Z,11.82
2023-05-05T04:29:48.065Z,11.23
2023-05-05T04:32:15.052Z,12.35
2023-05-05T04:34:42.089Z,11.40
2023-05-05T04:37:09.258Z,11.85
2023-05-05T04:39:36.255Z,11.55
2023-05-05T04:42:03.443Z,10.63
2023-05-05T04:44:30.607Z,10.50
2023-05-05T04:46:58.127Z,11.65
2023-05-05T04:49:25.088Z,11.57
2023-05-05T04:51:52.059Z,10.75
2023-05-05T04:54:19.036Z,9.95
2023-05-05T04:56:46.042Z,9.68
2023-05-05T04:59:12.992Z,9.10
2023-05-05T05:01:40.140Z,7.63
2023-05-05T05:04:08.138Z,9.07
2023-05-05T05:06:35.188Z,11.20
2023-05-05T05:09:02.367Z,11.70
2023-05-05T05:11:29.399Z,11.47
2023-05-05T05:13:56.385Z,13.15
2023-05-05T05:16:25.341Z,13.02
2023-05-05T05:18:52.417Z,13.95
2023-05-05T05:21:19.421Z,13.77
2023-05-05T05:23:46.386Z,13.37
2023-05-05T05:26:13.482Z,14.13
2023-05-05T05:28:41.660Z,13.63
2023-05-05T05:31:08.619Z,13.70
2023-05-05T05:33:35.598Z,12.80
2023-05-05T05:36:02.626Z,11.65
2023-05-05T05:38:29.563Z,12.32
2023-05-05T05:40:56.474Z,11.85
2023-05-05T05:43:23.427Z,10.90
2023-05-05T05:45:50.564Z,10.07
2023-05-05T05:48:17.523Z,9.77
2023-05-05T05:50:44.476Z,10.10
2023-05-05T05:53:11.448Z,9.32
2023-05-05T05:55:38.380Z,9.88
2023-05-05T05:58:05.444Z,9.82
2023-05-05T06:00:32.547Z,8.98
2023-05-05T06:02:59.579Z,8.82
2023-05-05T06:05:27.033Z,9.52
2023-05-05T06:07:54.027Z,8.77
2023-05-05T06:12:52.515Z,7.95
2023-05-05T06:15:19.567Z,8.80
2023-05-05T06:17:46.640Z,8.07
2023-05-05T06:20:13.976Z,7.13
2023-05-05T06:22:41.181Z,7.10
2023-05-05T06:25:08.664Z,6.90
2023-05-05T06:27:35.657Z,6.70
2023-05-05T06:30:02.708Z,6.15
2023-05-05T06:32:29.635Z,6.55
2023-05-05T06:34:56.559Z,6.00
2023-05-05T06:37:23.619Z,6.15
2023-05-05T06:39:50.782Z,5.93
2023-05-05T06:42:17.703Z,5.72
2023-05-05T06:44:44.936Z,6.18
2023-05-05T06:47:11.886Z,5.22
2023-05-05T06:49:38.948Z,5.93
2023-05-05T06:52:08.308Z,5.47
2023-05-05T06:54:35.394Z,5.70
2023-05-05T06:57:02.602Z,5.60
2023-05-05T06:59:29.612Z,5.40
2023-05-05T07:01:56.720Z,4.60
2023-05-05T07:04:23.749Z,5.20
2023-05-05T07:06:50.793Z,4.32
2023-05-05T07:09:18.684Z,5.60
2023-05-05T07:11:46.425Z,5.60
2023-05-05T07:14:13.426Z,5.88
2023-05-05T07:16:40.615Z,6.22
2023-05-05T07:19:07.644Z,6.82
2023-05-05T07:21:35.067Z,7.30
2023-05-05T07:24:03.792Z,8.05
2023-05-05T07:26:30.984Z,9.00
2023-05-05T07:28:59.090Z,8.52
2023-05-05T07:31:26.675Z,8.68
2023-05-05T07:33:53.941Z,9.45
2023-05-05T07:36:21.024Z,9.02
2023-05-05T07:38:48.667Z,9.20
2023-05-05T07:41:15.999Z,9.73
2023-05-05T07:43:44.641Z,9.23
2023-05-05T07:46:12.327Z,10.00
2023-05-05T07:48:41.517Z,10.68
2023-05-05T07:51:09.823Z,9.20
2023-05-05T07:53:37.213Z,9.07
2023-05-05T07:56:04.378Z,9.60
2023-05-05T07:58:31.373Z,9.23
2023-05-05T08:00:58.387Z,9.10
2023-05-05T08:03:25.654Z,8.43
2023-05-05T08:05:55.484Z,8.93
2023-05-05T08:08:26.952Z,10.15
2023-05-05T08:10:54.557Z,9.43
2023-05-05T08:13:21.627Z,10.13
2023-05-05T08:15:48.656Z,10.52
2023-05-05T08:18:15.666Z,10.27
2023-05-05T08:20:42.735Z,10.23
2023-05-05T08:23:09.667Z,10.60
2023-05-05T08:25:36.657Z,10.50
2023-05-05T08:28:03.795Z,11.07
2023-05-05T08:30:30.828Z,11.55
2023-05-05T08:32:58.786Z,11.02
2023-05-05T08:35:25.749Z,12.20
2023-05-05T08:37:52.795Z,11.70
2023-05-05T08:40:25.087Z,12.38
2023-05-05T08:42:52.098Z,11.75
2023-05-05T08:45:19.014Z,12.70
2023-05-05T08:47:46.333Z,12.95
2023-05-05T08:50:14.117Z,12.65
2023-05-05T08:52:47.245Z,12.00
2023-05-05T08:55:26.438Z,11.82
2023-05-05T08:57:57.379Z,12.35
2023-05-05T09:00:27.259Z,11.55
2023-05-05T09:02:58.237Z,12.45
2023-05-05T09:05:26.569Z,11.52
2023-05-05T09:07:53.857Z,11.50
2023-05-05T09:10:20.987Z,11.40
2023-05-05T09:12:50.434Z,10.75
2023-05-05T09:15:17.559Z,10.27
2023-05-05T09:17:45.551Z,9.73
2023-05-05T09:20:14.824Z,9.68
2023-05-05T09:22:47.321Z,11.02
2023-05-05T09:25:18.495Z,11.63
2023-05-05T09:27:48.239Z,10.13
2023-05-05T09:30:18.944Z,10.73
2023-05-05T09:32:55.592Z,10.18
2023-05-05T09:35:23.665Z,10.20
2023-05-05T09:37:50.763Z,10.90
2023-05-05T09:40:20.012Z,10.70
2023-05-05T09:42:47.705Z,10.90
2023-05-05T09:45:17.682Z,9.20
2023-05-05T09:47:48.726Z,9.60
2023-05-05T09:50:18.820Z,8.52
2023-05-05T09:53:03.350Z,7.78
2023-05-05T09:55:33.382Z,7.28
2023-05-05T09:58:23.846Z,7.75
2023-05-05T10:00:51.248Z,8.00
2023-05-05T10:03:18.959Z,7.63
2023-05-05T10:05:53.210Z,7.00
2023-05-05T10:08:32.332Z,8.05
2023-05-05T10:11:05.269Z,7.35
2023-05-05T10:13:37.158Z,7.07
2023-05-05T10:16:05.270Z,6.22
2023-05-05T10:18:32.813Z,5.85
2023-05-05T10:21:04.409Z,5.07
2023-05-05T10:23:48.864Z,5.20
2023-05-05T10:26:20.078Z,5.13
2023-05-05T10:28:57.066Z,5.10
2023-05-05T10:31:36.668Z,6.03
2023-05-05T10:34:10.960Z,6.35
2023-05-05T10:36:39.301Z,5.28
2023-05-05T10:39:10.912Z,5.78
2023-05-05T10:41:38.395Z,6.45
2023-05-05T10:44:06.209Z,6.10
2023-05-05T10:46:33.362Z,5.80
2023-05-05T10:49:13.079Z,7.05
2023-05-05T10:51:52.174Z,5.82
2023-05-05T10:54:45.070Z,6.63
2023-05-05T10:57:13.517Z,5.43
2023-05-05T10:59:42.322Z,6.13
2023-05-05T11:02:40.197Z,5.10
2023-05-05T11:05:13.297Z,4.65
2023-05-05T11:07:42.054Z,4.15
2023-05-05T11:10:11.469Z,4.03
2023-05-05T11:12:59.388Z,2.95
2023-05-05T11:15:29.295Z,3.20
2023-05-05T11:18:02.626Z,3.13
2023-05-05T11:20:40.653Z,3.30
2023-05-05T11:23:07.776Z,2.95
2023-05-05T11:25:38.914Z,3.58
2023-05-05T11:28:11.542Z,3.70
2023-05-05T11:30:57.497Z,3.10
2023-05-05T11:33:32.511Z,3.10
2023-05-05T11:36:09.273Z,3.15
2023-05-05T11:39:08.809Z,3.50
2023-05-05T11:42:25.074Z,3.10
2023-05-05T11:44:52.717Z,3.10
2023-05-05T11:47:19.584Z,3.58
2023-05-05T11:49:46.740Z,2.75
2023-05-05T11:52:15.076Z,1.95
2023-05-05T11:54:48.983Z,2.75
2023-05-05T11:57:20.958Z,3.03
2023-05-05T12:00:01.517Z,3.20
2023-05-05T12:02:30.142Z,2.63
2023-05-05T12:04:59.094Z,2.85
2023-05-05T12:07:31.600Z,3.05
2023-05-05T12:09:58.706Z,3.17
2023-05-05T12:12:36.258Z,2.50
2023-05-05T12:15:04.073Z,2.85
2023-05-05T12:17:58.579Z,2.70
2023-05-05T12:20:32.564Z,2.00
2023-05-05T12:23:01.836Z,1.60
2023-05-05T12:25:36.767Z,2.05
2023-05-05T12:28:08.444Z,2.10
2023-05-05T12:30:36.010Z,1.70
2023-05-05T12:33:08.157Z,2.00
2023-05-05T12:35:35.853Z,2.20
2023-05-05T12:38:03.463Z,1.70
2023-05-05T12:40:50.015Z,1.30
2023-05-05T12:43:30.604Z,1.88
2023-05-05T12:46:11.995Z,1.65
2023-05-05T12:48:44.968Z,1.92
2023-05-05T12:51:19.752Z,1.92
2023-05-05T12:53:48.796Z,1.70
2023-05-05T12:56:36.998Z,1.50
2023-05-05T12:59:09.220Z,1.58
2023-05-05T13:01:48.126Z,1.40
2023-05-05T13:04:15.434Z,1.50
2023-05-05T13:06:48.172Z,1.50
2023-05-05T13:09:28.285Z,1.20
2023-05-05T13:11:55.403Z,1.27
2023-05-05T13:14:23.284Z,1.67
2023-05-05T13:16:50.569Z,1.65
2023-05-05T13:19:17.669Z,1.80
2023-05-05T13:21:44.606Z,1.70
2023-05-05T13:24:22.979Z,1.40
2023-05-05T13:26:54.102Z,1.50
2023-05-05T13:29:21.053Z,1.52
2023-05-05T13:31:48.113Z,1.13
2023-05-05T13:34:15.120Z,1.67
2023-05-05T13:36:42.068Z,1.48
2023-05-05T13:39:09.106Z,1.20
2023-05-05T13:41:36.249Z,1.10
2023-05-05T13:44:03.265Z,1.23
2023-05-05T13:46:30.738Z,1.05
2023-05-05T13:48:57.810Z,0.95
2023-05-05T13:51:24.765Z,1.20
2023-05-05T13:53:52.608Z,1.10
2023-05-05T13:56:19.855Z,1.13
2023-05-05T13:58:46.825Z,1.30
2023-05-05T14:01:13.879Z,1.00
2023-05-05T14:03:40.895Z,1.00
2023-05-05T14:06:09.305Z,1.20
2023-05-05T14:08:36.517Z,1.10
2023-05-05T14:11:03.774Z,1.40
2023-05-05T14:13:31.250Z,1.20
2023-05-05T14:15:58.465Z,1.13
2023-05-05T14:18:28.393Z,1.00
2023-05-05T14:20:55.386Z,1.30
2023-05-05T14:23:22.327Z,1.10
2023-05-05T14:25:49.443Z,1.30
2023-05-05T14:28:16.371Z,1.15
2023-05-05T14:30:43.344Z,1.40
2023-05-05T14:33:10.406Z,1.50
2023-05-05T14:35:37.334Z,1.20
2023-05-05T14:38:04.314Z,1.50
2023-05-05T14:40:31.422Z,1.30
2023-05-05T14:42:58.407Z,1.30
2023-05-05T14:45:26.367Z,1.23
2023-05-05T14:47:54.591Z,1.25
2023-05-05T14:50:21.624Z,1.52
2023-05-05T14:52:48.625Z,1.20
2023-05-05T14:55:15.624Z,1.08
2023-05-05T14:57:42.593Z,1.33
2023-05-05T15:00:11.043Z,1.42
2023-05-05T15:02:38.028Z,1.50
2023-05-05T15:05:05.847Z,1.50
2023-05-05T15:07:32.910Z,1.20
2023-05-05T15:09:59.885Z,1.33
2023-05-05T15:12:26.854Z,1.20
2023-05-05T15:14:55.346Z,1.40
2023-05-05T15:17:22.427Z,1.13
2023-05-05T15:19:49.514Z,1.30
2023-05-05T15:22:16.551Z,1.60
2023-05-05T15:24:43.464Z,1.40
2023-05-05T15:27:10.500Z,1.40
2023-05-05T15:29:37.463Z,1.20
2023-05-05T15:32:04.704Z,1.30
2023-05-05T15:34:31.816Z,1.33
2023-05-05T15:36:58.722Z,1.25
2023-05-05T15:39:25.827Z,1.05
2023-05-05T15:41:53.025Z,1.10
2023-05-05T15:44:19.934Z,1.10
2023-05-05T15:46:49.740Z,1.48
2023-05-05T15:49:17.350Z,1.15
2023-05-05T15:51:44.294Z,1.00
2023-05-05T15:54:11.297Z,0.80
2023-05-05T15:56:38.280Z,0.85
2023-05-05T15:59:05.392Z,0.47
2023-05-05T16:01:33.678Z,0.70
2023-05-05T16:04:01.287Z,0.75
2023-05-05T16:06:28.605Z,0.70
2023-05-05T16:08:58.494Z,1.00
2023-05-05T16:11:26.717Z,0.60
2023-05-05T16:13:54.173Z,0.63
2023-05-05T16:16:21.737Z,1.00
2023-05-05T16:18:48.765Z,0.88
2023-05-05T16:21:15.824Z,0.88
2023-05-05T16:23:43.516Z,0.88
2023-05-05T16:26:10.450Z,0.73
2023-05-05T16:28:37.730Z,0.80
2023-05-05T16:31:04.901Z,0.80
2023-05-05T16:33:31.979Z,1.13
2023-05-05T16:35:58.885Z,1.00
2023-05-05T16:38:25.918Z,0.80
2023-05-05T16:40:52.935Z,1.08
2023-05-05T16:43:19.927Z,0.88
2023-05-05T16:45:46.860Z,0.60
2023-05-05T16:48:14.731Z,0.80
2023-05-05T16:50:41.800Z,0.90
2023-05-05T16:53:10.039Z,0.80
2023-05-05T16:55:40.111Z,0.93
2023-05-05T16:58:07.111Z,1.00
2023-05-05T17:00:34.057Z,0.80
2023-05-05T17:03:01.228Z,1.05
2023-05-05T17:05:28.282Z,1.05
2023-05-05T17:07:55.249Z,1.20
2023-05-05T17:10:22.339Z,1.30
2023-05-05T17:12:49.357Z,1.23
2023-05-05T17:15:16.672Z,1.00
2023-05-05T17:17:43.690Z,1.10
2023-05-05T17:20:12.083Z,1.20
2023-05-05T17:22:39.119Z,1.20
2023-05-05T17:25:07.142Z,1.23
2023-05-05T17:27:34.249Z,1.15
2023-05-05T17:30:01.213Z,1.20
2023-05-05T17:32:28.234Z,1.33
2023-05-05T17:34:56.436Z,1.27
2023-05-05T17:37:23.485Z,1.35
2023-05-05T17:39:50.513Z,1.23
2023-05-05T17:42:22.722Z,1.35
2023-05-05T17:44:53.515Z,1.10
2023-05-05T17:47:22.420Z,1.10
2023-05-05T17:49:49.816Z,1.30
2023-05-05T17:52:16.762Z,1.40
2023-05-05T17:54:43.790Z,1.40
2023-05-05T17:57:10.781Z,1.35
2023-05-05T17:59:37.711Z,1.38
2023-05-05T18:02:05.116Z,1.30
2023-05-05T18:04:32.816Z,1.50
2023-05-05T18:06:59.980Z,1.42
2023-05-05T18:09:26.989Z,1.50
2023-05-05T18:11:55.500Z,1.20
2023-05-05T18:14:23.784Z,1.25
2023-05-05T18:16:53.999Z,1.30
2023-05-05T18:19:23.113Z,1.40
2023-05-05T18:21:53.176Z,1.17
2023-05-05T18:24:20.735Z,1.25
2023-05-05T18:26:50.953Z,1.25
2023-05-05T18:29:22.037Z,1.30
2023-05-05T18:31:52.830Z,1.33
2023-05-05T18:34:20.905Z,1.10
2023-05-05T18:36:54.195Z,1.10
2023-05-05T18:39:21.350Z,1.23
2023-05-05T18:41:48.330Z,1.08
2023-05-05T18:44:16.496Z,1.42
2023-05-05T18:46:43.502Z,1.20
2023-05-05T18:49:10.494Z,1.23
2023-05-05T18:51:37.454Z,1.25
2023-05-05T18:54:04.534Z,1.40
2023-05-05T18:56:31.481Z,1.20
2023-05-05T18:58:58.557Z,1.33
2023-05-05T19:01:25.864Z,1.45
2023-05-05T19:03:53.038Z,1.10
2023-05-05T19:06:20.114Z,1.23
2023-05-05T19:08:47.167Z,1.60
2023-05-05T19:11:15.159Z,1.63
2023-05-05T19:13:42.605Z,1.38
2023-05-05T19:16:11.356Z,1.27
2023-05-05T19:18:38.928Z,1.50
2023-05-05T19:21:06.288Z,1.50
2023-05-05T19:23:33.565Z,1.48
2023-05-05T19:26:00.950Z,1.60
2023-05-05T19:28:27.913Z,1.20
2023-05-05T19:30:54.853Z,1.30
2023-05-05T19:33:22.325Z,1.50
2023-05-05T19:35:49.747Z,1.73
2023-05-05T19:38:16.840Z,1.30
2023-05-05T19:40:43.874Z,1.27
2023-05-05T19:43:10.835Z,1.60
2023-05-05T19:45:38.032Z,1.88
2023-05-05T19:48:05.590Z,1.90
2023-05-05T19:50:32.650Z,2.08
2023-05-05T19:52:59.628Z,2.22
2023-05-05T19:55:26.841Z,2.30
2023-05-05T19:57:53.942Z,2.55
2023-05-05T20:00:21.038Z,2.33
2023-05-05T20:02:49.128Z,2.60
2023-05-05T20:05:17.624Z,2.50
2023-05-05T20:07:46.419Z,2.28
2023-05-05T20:10:13.805Z,1.98
2023-05-05T20:12:47.752Z,2.30
2023-05-05T20:15:19.551Z,2.40
2023-05-05T20:17:47.779Z,2.20
2023-05-05T20:20:21.866Z,2.78
2023-05-05T20:22:49.655Z,2.88
2023-05-05T20:25:16.905Z,2.65
2023-05-05T20:27:45.296Z,2.88
2023-05-05T20:30:13.128Z,2.85
2023-05-05T20:32:40.821Z,2.58
2023-05-05T20:35:09.060Z,2.40
2023-05-05T20:37:36.121Z,2.60
2023-05-05T20:40:03.843Z,2.55
2023-05-05T20:42:30.934Z,2.20
2023-05-05T20:44:58.031Z,2.17
2023-05-05T20:47:25.106Z,2.08
2023-05-05T20:49:52.498Z,2.85
2023-05-05T20:52:19.744Z,2.20
2023-05-05T20:54:46.735Z,2.33
2023-05-05T20:57:13.704Z,2.70
2023-05-05T20:59:40.676Z,2.35
2023-05-05T21:02:07.880Z,2.30
2023-05-05T21:04:34.872Z,2.10
2023-05-05T21:07:02.170Z,2.40
2023-05-05T21:09:29.318Z,2.38
2023-05-05T21:11:56.307Z,2.17
2023-05-05T21:14:23.742Z,2.60
2023-05-05T21:16:50.904Z,2.05
2023-05-05T21:19:17.877Z,2.13
2023-05-05T21:21:44.832Z,2.13
2023-05-05T21:24:13.053Z,2.50
2023-05-05T21:26:44.335Z,2.00
2023-05-05T21:29:12.057Z,1.95
2023-05-05T21:31:39.065Z,2.05
2023-05-05T21:34:06.005Z,2.20
2023-05-05T21:36:33.904Z,2.10
2023-05-05T21:39:01.162Z,1.98
2023-05-05T21:41:28.310Z,2.22
2023-05-05T21:43:55.692Z,1.90
2023-05-05T21:46:22.829Z,2.00
2023-05-05T21:48:49.913Z,1.95
2023-05-05T21:51:17.400Z,2.10
2023-05-05T21:53:44.426Z,2.17
2023-05-05T21:56:11.410Z,1.95
2023-05-05T21:58:38.422Z,2.40
2023-05-05T22:01:05.536Z,2.20
2023-05-05T22:03:35.046Z,2.30
2023-05-05T22:06:02.985Z,2.45
2023-05-05T22:08:29.921Z,2.33
2023-05-05T22:10:56.858Z,2.00
2023-05-05T22:13:23.969Z,2.08
2023-05-05T22:15:50.969Z,1.95
2023-05-05T22:18:17.892Z,2.08
2023-05-05T22:20:44.997Z,2.30
2023-05-05T22:23:11.954Z,2.47
2023-05-05T22:25:38.867Z,2.40
2023-05-05T22:28:05.929Z,2.13
2023-05-05T22:30:33.115Z,2.10
2023-05-05T22:33:00.167Z,2.20
2023-05-05T22:35:27.458Z,2.40
2023-05-05T22:37:54.438Z,2.47
2023-05-05T22:40:21.429Z,2.20
2023-05-05T22:42:48.425Z,2.27
2023-05-05T22:45:15.740Z,2.33
2023-05-05T22:47:42.750Z,3.00
2023-05-05T22:50:10.400Z,2.60
2023-05-05T22:52:37.329Z,3.37
2023-05-05T22:55:04.780Z,2.93
2023-05-05T22:57:31.839Z,3.13
2023-05-05T22:59:58.745Z,3.27
2023-05-05T23:02:26.713Z,3.27
2023-05-05T23:04:53.928Z,3.47
2023-05-05T23:07:21.009Z,3.33
2023-05-05T23:09:48.348Z,3.20
2023-05-05T23:12:15.361Z,3.27
2023-05-05T23:14:42.369Z,3.03
2023-05-05T23:17:10.249Z,3.40
2023-05-05T23:19:37.510Z,3.40
2023-05-05T23:22:04.811Z,2.93
2023-05-05T23:24:31.829Z,3.13
2023-05-05T23:27:03.526Z,3.10
2023-05-05T23:29:30.767Z,3.23
2023-05-05T23:31:58.254Z,2.97
2023-05-05T23:34:26.778Z,3.03
2023-05-05T23:36:53.698Z,3.20
2023-05-05T23:39:20.654Z,2.93
2023-05-05T23:41:47.725Z,3.10
2023-05-05T23:44:14.739Z,3.43
2023-05-05T23:46:41.771Z,3.10
2023-05-05T23:49:08.853Z,3.20
2023-05-05T23:51:36.415Z,3.43
2023-05-05T23:54:03.320Z,3.53
2023-05-05T23:56:30.514Z,3.20
2023-05-05T23:58:57.504Z,3.30
